Time;durP1;ratioP1;P1;durP2;ratioP2;P2;SDS_P1;SDS_P2;PMS_P1;PMS_P2;Temp;Humidity;BMP_temperature;BMP_pressure;BME280_temperature;BME280_humidity;BME280_pressure;Samples;Min_cycle;Max_cycle;Signal;HPM_P1;HPM_P2
2023/10/04 00:04:02;;;;;;;7.70;2.47;;;20.10;59.10;;;;;;4992640;28;20233;-64
2023/10/04 00:06:31;;;;;;;4.32;1.50;;;20.10;59.00;;;;;;4937956;28;20242;-65
2023/10/04 00:09:00;;;;;;;6.95;1.60;;;20.20;59.10;;;;;;4973105;28;20202;-64
2023/10/04 00:14:14;;;;;;;5.78;1.80;;;20.10;59.00;;;;;;4971348;28;20203;-64
2023/10/04 00:16:42;;;;;;;7.22;2.08;;;20.10;59.00;;;;;;4972472;28;20218;-64
2023/10/04 00:19:58;;;;;;;8.63;1.80;;;20.10;59.10;;;;;;4972689;28;20187;-65
2023/10/04 00:29:45;;;;;;;3.25;1.58;;;20.10;59.00;;;;;;4953073;29;20206;-64
2023/10/04 00:32:15;;;;;;;6.35;1.60;;;20.10;59.00;;;;;;4953172;28;20223;-64
2023/10/04 00:37:55;;;;;;;7.68;2.15;;;20.10;59.00;;;;;;4914567;29;20231;-64
2023/10/04 00:40:25;;;;;;;4.70;1.70;;;20.10;59.00;;;;;;4919146;29;20244;-64
2023/10/04 00:43:13;;;;;;;4.80;1.70;;;20.10;59.00;;;;;;4976998;28;20263;-64
2023/10/04 00:45:44;;;;;;;4.30;1.85;;;20.00;58.90;;;;;;4992196;28;20208;-64
2023/10/04 00:48:17;;;;;;;5.78;2.58;;;20.00;58.90;;;;;;5053316;28;20671;-64
2023/10/04 00:50:46;;;;;;;7.72;2.30;;;20.00;58.90;;;;;;5052836;28;20192;-64
2023/10/04 00:56:02;;;;;;;7.70;1.63;;;20.10;58.90;;;;;;5052156;28;20286;-64
2023/10/04 00:58:30;;;;;;;4.78;1.60;;;20.00;58.90;;;;;;5053073;28;20192;-64
2023/10/04 01:00:58;;;;;;;5.07;1.70;;;20.00;58.90;;;;;;5053209;28;20191;-64
2023/10/04 01:06:09;;;;;;;5.43;1.80;;;20.00;58.80;;;;;;5050740;28;20204;-64
2023/10/04 01:08:39;;;;;;;4.28;1.50;;;20.00;58.80;;;;;;5052651;28;20247;-64
2023/10/04 01:11:12;;;;;;;8.07;2.00;;;20.10;58.80;;;;;;5052491;28;20246;-64
2023/10/04 01:17:12;;;;;;;4.75;1.73;;;20.00;58.70;;;;;;5052708;28;20630;-63
2023/10/04 01:19:41;;;;;;;5.53;1.88;;;20.00;59.40;;;;;;5052839;28;20222;-64
2023/10/04 01:22:19;;;;;;;5.05;1.60;;;20.10;58.80;;;;;;5054620;28;20223;-64
2023/10/04 01:24:47;;;;;;;6.13;1.75;;;20.10;58.80;;;;;;5072784;28;20202;-64
2023/10/04 01:27:14;;;;;;;5.05;1.80;;;20.00;58.70;;;;;;5071389;28;20236;-64
2023/10/04 01:29:42;;;;;;;6.78;1.95;;;20.00;58.70;;;;;;5072421;28;20194;-64
2023/10/04 01:32:10;;;;;;;5.60;1.60;;;20.00;58.70;;;;;;5072469;28;20818;-64
2023/10/04 01:44:21;;;;;;;6.65;1.98;;;20.00;58.60;;;;;;4859143;29;20211;-64
2023/10/04 01:46:56;;;;;;;7.50;1.98;;;20.00;58.70;;;;;;4913884;29;20224;-64
2023/10/04 01:49:24;;;;;;;4.85;1.80;;;20.00;59.30;;;;;;4913819;29;20193;-64
2023/10/04 01:51:53;;;;;;;3.47;1.48;;;20.00;58.70;;;;;;4913543;29;20224;-64
2023/10/04 01:54:22;;;;;;;6.30;2.30;;;20.00;58.70;;;;;;4913620;29;20708;-64
2023/10/04 01:56:53;;;;;;;6.47;1.67;;;20.00;58.60;;;;;;4913772;29;20251;-64
2023/10/04 01:59:22;;;;;;;7.82;1.48;;;20.00;58.60;;;;;;4913480;29;20205;-64
2023/10/04 02:01:49;;;;;;;4.22;1.50;;;20.00;58.60;;;;;;4913736;29;20751;-64
2023/10/04 02:04:17;;;;;;;4.35;1.70;;;20.00;58.60;;;;;;4913680;29;20200;-64
2023/10/04 02:06:48;;;;;;;6.78;1.70;;;20.00;58.60;;;;;;4913088;29;20296;-64
2023/10/04 02:09:16;;;;;;;3.80;1.63;;;20.00;58.60;;;;;;4983884;28;20289;-64
2023/10/04 02:11:46;;;;;;;6.35;1.65;;;20.00;58.60;;;;;;4989340;28;20243;-64
2023/10/04 02:14:13;;;;;;;4.53;1.70;;;20.00;58.60;;;;;;4990010;28;20198;-64
2023/10/04 02:16:46;;;;;;;8.30;1.83;;;20.00;58.60;;;;;;4990453;28;20288;-64
2023/10/04 02:19:14;;;;;;;3.20;1.60;;;20.00;58.60;;;;;;5050000;28;20207;-64
2023/10/04 02:21:43;;;;;;;5.93;1.83;;;20.00;58.60;;;;;;5051583;28;20230;-64
2023/10/04 02:24:31;;;;;;;5.30;2.08;;;20.00;58.60;;;;;;5051566;28;20289;-64
2023/10/04 02:27:01;;;;;;;4.13;1.83;;;20.00;58.50;;;;;;5051206;28;20220;-64
2023/10/04 02:29:29;;;;;;;6.18;1.90;;;20.00;58.60;;;;;;5051659;28;20249;-64
2023/10/04 02:32:25;;;;;;;3.53;1.52;;;20.00;58.50;;;;;;5051934;28;20227;-64
2023/10/04 02:45:12;;;;;;;;;;;;;;;;;;;;;
2023/10/04 02:47:50;;;;;;;5.60;2.00;;;19.90;58.40;;;;;;5003965;28;20243;-64
2023/10/04 03:00:19;;;;;;;4.57;1.73;;;19.90;58.40;;;;;;4911709;29;20247;-64
2023/10/04 03:02:49;;;;;;;3.67;1.63;;;19.90;58.40;;;;;;4954942;28;20671;-65
2023/10/04 03:05:18;;;;;;;6.10;1.60;;;19.90;58.40;;;;;;4954553;29;20192;-64
2023/10/04 03:10:42;;;;;;;5.32;2.05;;;19.90;58.40;;;;;;4954787;29;20195;-64
2023/10/04 03:13:25;;;;;;;4.90;1.65;;;19.90;58.30;;;;;;4954492;28;20310;-64
2023/10/04 03:16:06;;;;;;;6.30;1.85;;;19.90;58.30;;;;;;4954712;29;20208;-64
2023/10/04 03:18:37;;;;;;;6.28;1.73;;;19.90;58.30;;;;;;4954533;28;20223;-64
2023/10/04 03:21:10;;;;;;;3.38;1.45;;;19.90;58.30;;;;;;5015574;28;20206;-64
2023/10/04 03:23:40;;;;;;;4.13;1.60;;;19.90;58.30;;;;;;5054780;28;20270;-64
2023/10/04 03:26:25;;;;;;;;;;;;;;;;;;;;;
2023/10/04 03:38:40;;;;;;;5.15;1.98;;;19.90;58.20;;;;;;4935253;29;20211;-64
2023/10/04 03:41:11;;;;;;;3.47;1.90;;;19.90;58.30;;;;;;4934823;29;20203;-65
2023/10/04 03:43:43;;;;;;;6.68;1.90;;;19.90;58.20;;;;;;4935043;29;20228;-64
2023/10/04 03:46:18;;;;;;;5.13;1.95;;;19.90;58.20;;;;;;4934985;29;20208;-64
2023/10/04 03:48:49;;;;;;;8.70;1.80;;;19.90;58.20;;;;;;4934574;29;20352;-65
2023/10/04 03:51:21;;;;;;;4.88;1.70;;;19.90;58.20;;;;;;4934000;29;20197;-64
2023/10/04 03:53:53;;;;;;;4.53;1.70;;;19.90;58.20;;;;;;4934864;29;20230;-65
2023/10/04 03:56:28;;;;;;;4.07;1.70;;;19.90;58.10;;;;;;4934511;29;20216;-64
2023/10/04 03:59:03;;;;;;;2.88;1.52;;;19.80;58.10;;;;;;4934641;29;20192;-64
2023/10/04 04:01:32;;;;;;;4.22;1.55;;;19.80;58.10;;;;;;4934606;29;20661;-64
2023/10/04 04:04:03;;;;;;;3.17;1.70;;;19.90;58.10;;;;;;4934407;29;20225;-64
2023/10/04 04:06:49;;;;;;;6.15;1.80;;;19.90;58.10;;;;;;4969783;28;20199;-64
2023/10/04 04:09:25;;;;;;;5.45;2.00;;;19.90;58.10;;;;;;5025804;28;20308;-64
2023/10/04 04:12:29;;;;;;;4.93;1.95;;;19.80;58.00;;;;;;5043470;28;20586;-64
2023/10/04 04:21:47;;;;;;;3.78;1.60;;;19.80;58.00;;;;;;5053102;28;20196;-64
2023/10/04 04:24:15;;;;;;;5.38;1.88;;;19.80;58.00;;;;;;5053437;28;20232;-64
2023/10/04 04:26:55;;;;;;;4.60;1.60;;;19.80;58.00;;;;;;5053536;28;20277;-64
2023/10/04 04:32:28;;;;;;;4.68;1.48;;;19.80;58.00;;;;;;5053605;28;20218;-64
2023/10/04 04:37:39;;;;;;;4.57;1.58;;;19.80;58.00;;;;;;5051814;28;20223;-64
2023/10/04 04:40:09;;;;;;;5.15;1.70;;;19.80;57.90;;;;;;5053471;28;20195;-64
2023/10/04 04:50:35;;;;;;;4.88;1.70;;;19.80;57.90;;;;;;5011183;28;20265;-64
2023/10/04 04:53:12;;;;;;;5.22;1.70;;;19.80;57.90;;;;;;5011178;28;20225;-64
2023/10/04 04:55:41;;;;;;;4.82;1.48;;;19.80;58.00;;;;;;5030066;28;20199;-64
2023/10/04 04:58:08;;;;;;;5.13;1.63;;;19.80;57.90;;;;;;5053468;28;20310;-64
2023/10/04 05:00:50;;;;;;;3.67;1.65;;;19.80;57.90;;;;;;5052952;28;20247;-64
2023/10/04 05:03:41;;;;;;;3.38;1.55;;;19.70;57.80;;;;;;5052823;28;20255;-64
2023/10/04 05:06:13;;;;;;;7.05;1.90;;;19.80;57.90;;;;;;5052788;28;20191;-64
2023/10/04 05:09:10;;;;;;;5.78;2.08;;;19.80;57.80;;;;;;5053068;28;20235;-64
2023/10/04 05:32:34;;;;;;;3.95;1.90;;;19.70;57.80;;;;;;4971364;28;20225;-64
2023/10/04 05:35:01;;;;;;;7.05;2.00;;;19.70;57.80;;;;;;4971373;28;20202;-64
2023/10/04 05:37:29;;;;;;;6.68;1.90;;;19.70;57.80;;;;;;4971420;28;20225;-64
2023/10/04 05:39:56;;;;;;;5.28;1.75;;;19.70;57.80;;;;;;4971281;28;20217;-64
2023/10/04 05:42:40;;;;;;;6.55;1.90;;;19.70;57.80;;;;;;4971240;28;20226;-64
2023/10/04 05:45:10;;;;;;;5.35;1.92;;;19.80;57.80;;;;;;4971188;28;20209;-64
2023/10/04 05:48:12;;;;;;;7.05;2.30;;;19.70;57.70;;;;;;4970930;28;20289;-64
2023/10/04 05:50:40;;;;;;;5.07;1.80;;;19.70;57.70;;;;;;4971333;28;20287;-64
2023/10/04 05:53:09;;;;;;;4.15;1.75;;;19.70;57.70;;;;;;5032758;28;20227;-64
2023/10/04 05:55:44;;;;;;;5.60;2.00;;;19.70;57.70;;;;;;5051633;28;20192;-64
2023/10/04 05:58:14;;;;;;;5.43;2.00;;;19.70;57.70;;;;;;5050442;28;20258;-64
2023/10/04 06:00:52;;;;;;;5.72;1.83;;;19.70;57.70;;;;;;5051914;28;20225;-64
2023/10/04 06:03:20;;;;;;;4.47;1.80;;;19.70;57.70;;;;;;5051959;28;20218;-64
2023/10/04 06:05:52;;;;;;;4.65;1.80;;;19.70;57.70;;;;;;5051888;28;20199;-64
2023/10/04 06:08:21;;;;;;;6.63;1.80;;;19.70;57.70;;;;;;5052238;28;20319;-64
2023/10/04 06:10:50;;;;;;;5.20;1.88;;;19.70;57.70;;;;;;5051934;28;20210;-64
2023/10/04 06:13:22;;;;;;;4.13;1.55;;;19.70;57.60;;;;;;5053262;28;20634;-65
2023/10/04 06:15:53;;;;;;;4.40;1.70;;;19.70;57.60;;;;;;5056269;28;20187;-64
2023/10/04 06:24:23;;;;;;;7.88;1.92;;;19.70;57.60;;;;;;4954930;28;20226;-65
2023/10/04 06:26:51;;;;;;;4.00;1.50;;;19.70;57.70;;;;;;4955527;28;20206;-64
2023/10/04 06:29:20;;;;;;;4.88;1.73;;;19.70;57.60;;;;;;4955531;29;20231;-65
2023/10/04 06:31:47;;;;;;;6.03;2.03;;;19.70;57.60;;;;;;4955105;28;20203;-64
2023/10/04 06:34:15;;;;;;;5.88;2.10;;;19.70;58.20;;;;;;4955420;29;20196;-64
2023/10/04 06:36:52;;;;;;;5.30;1.77;;;19.70;57.60;;;;;;4955301;28;20206;-64
2023/10/04 06:39:20;;;;;;;5.13;1.60;;;19.70;57.70;;;;;;4953554;29;20665;-65
2023/10/04 06:42:05;;;;;;;6.00;1.75;;;19.70;57.70;;;;;;4954505;28;20208;-64
2023/10/04 06:51:51;;;;;;;3.72;1.38;;;19.70;57.60;;;;;;5032401;28;20200;-64
2023/10/04 06:54:21;;;;;;;2.83;1.65;;;19.70;57.60;;;;;;5042075;28;20200;-64
2023/10/04 06:59:44;;;;;;;4.18;1.67;;;19.70;57.70;;;;;;5032373;28;20204;-65
2023/10/04 07:02:12;;;;;;;4.10;1.63;;;19.70;57.70;;;;;;5055622;28;20302;-64
2023/10/04 07:07:56;;;;;;;6.03;1.70;;;19.80;57.80;;;;;;5036452;28;20219;-65
2023/10/04 07:13:08;;;;;;;3.10;1.90;;;19.80;57.80;;;;;;4994175;28;20224;-64
2023/10/04 07:15:39;;;;;;;5.38;2.13;;;19.80;57.70;;;;;;5000541;28;20332;-64
2023/10/04 07:18:11;;;;;;;9.77;1.80;;;19.90;57.80;;;;;;5005791;28;20225;-63
2023/10/04 07:20:49;;;;;;;7.60;1.83;;;19.90;57.70;;;;;;4972867;28;20205;-63
2023/10/04 07:23:21;;;;;;;3.95;1.83;;;20.00;57.60;;;;;;4952469;28;20407;-63
2023/10/04 07:25:54;;;;;;;5.32;1.70;;;20.10;57.80;;;;;;4969126;28;20216;-63
2023/10/04 07:28:29;;;;;;;10.10;2.28;;;20.10;57.90;;;;;;4968172;28;20291;-64
2023/10/04 07:31:05;;;;;;;9.82;1.80;;;20.10;57.90;;;;;;5000404;28;20208;-63
2023/10/04 07:33:33;;;;;;;9.50;1.80;;;20.10;57.80;;;;;;5002609;28;20221;-64
2023/10/04 07:36:04;;;;;;;9.32;2.20;;;20.20;58.00;;;;;;4972319;28;20216;-63
2023/10/04 07:38:37;;;;;;;8.15;1.85;;;20.20;58.10;;;;;;4975165;28;20275;-64
2023/10/04 07:41:14;;;;;;;25.85;2.53;;;20.20;58.20;;;;;;5003485;28;20348;-64
2023/10/04 07:43:53;;;;;;;5.35;1.70;;;20.30;58.50;;;;;;4993929;28;20222;-64
2023/10/04 07:46:28;;;;;;;5.07;1.67;;;20.30;58.40;;;;;;5026776;28;20207;-62
2023/10/04 07:49:28;;;;;;;5.13;1.77;;;20.40;58.20;;;;;;5023983;28;20313;-64
2023/10/04 07:52:03;;;;;;;13.13;2.05;;;20.50;58.40;;;;;;5011044;28;20214;-64
2023/10/04 07:54:34;;;;;;;13.18;2.30;;;20.50;58.30;;;;;;5039951;28;20714;-64
2023/10/04 07:57:06;;;;;;;7.45;1.95;;;20.50;58.00;;;;;;5048099;28;20231;-64
2023/10/04 07:59:41;;;;;;;12.60;2.30;;;21.30;81.60;;;;;;5043639;28;20219;-64
2023/10/04 08:02:11;;;;;;;9.55;2.20;;;20.50;57.90;;;;;;5047862;28;20286;-63
2023/10/04 08:04:44;;;;;;;5.78;1.65;;;20.60;58.00;;;;;;5050063;28;20250;-64
2023/10/04 08:07:18;;;;;;;9.23;1.75;;;20.60;58.00;;;;;;5053001;28;20206;-64
2023/10/04 08:09:58;;;;;;;9.85;1.75;;;20.60;57.90;;;;;;5049011;28;20227;-64
2023/10/04 08:12:26;;;;;;;4.28;1.70;;;20.60;57.90;;;;;;5049226;28;20203;-62
2023/10/04 08:15:00;;;;;;;7.13;1.92;;;20.60;57.90;;;;;;5047268;28;20290;-63
2023/10/04 08:17:30;;;;;;;12.35;2.10;;;20.70;58.00;;;;;;5042159;28;20611;-62
2023/10/04 08:19:58;;;;;;;8.73;2.03;;;20.70;58.00;;;;;;5042788;28;20214;-61
2023/10/04 08:22:28;;;;;;;10.90;1.73;;;20.70;57.70;;;;;;5008904;28;20239;-63
2023/10/04 08:25:03;;;;;;;6.28;1.60;;;20.70;57.70;;;;;;5038799;28;20228;-62
2023/10/04 08:27:32;;;;;;;8.48;1.88;;;20.70;57.80;;;;;;5029682;28;20205;-63
2023/10/04 08:30:06;;;;;;;15.57;2.20;;;20.70;57.80;;;;;;5038024;28;20215;-63
2023/10/04 08:32:37;;;;;;;12.65;2.05;;;20.70;57.80;;;;;;5025783;28;20210;-63
2023/10/04 08:35:21;;;;;;;13.65;1.98;;;20.80;57.80;;;;;;4981331;28;20384;-62
2023/10/04 08:37:49;;;;;;;9.63;1.83;;;20.80;57.80;;;;;;4985864;28;20202;-63
2023/10/04 08:40:18;;;;;;;4.90;1.92;;;20.80;57.70;;;;;;4953501;28;20244;-61
2023/10/04 08:46:22;;;;;;;18.50;2.00;;;20.80;57.70;;;;;;4966312;28;20194;-63
2023/10/04 08:48:53;;;;;;;15.50;2.70;;;20.80;57.80;;;;;;4971006;28;20239;-63
2023/10/04 08:54:35;;;;;;;6.88;2.03;;;20.90;58.00;;;;;;4985076;28;20240;-60
2023/10/04 08:57:20;;;;;;;18.08;3.00;;;20.90;57.90;;;;;;4971227;28;20210;-63
2023/10/04 08:59:59;;;;;;;6.00;2.15;;;20.90;57.80;;;;;;4950245;28;20228;-62
2023/10/04 09:05:38;;;;;;;13.70;2.40;;;20.90;57.80;;;;;;4928300;29;20204;-61
2023/10/04 09:08:10;;;;;;;14.45;1.90;;;20.90;57.80;;;;;;4987027;28;20208;-63
2023/10/04 09:10:47;;;;;;;15.10;2.42;;;20.90;57.90;;;;;;5006159;28;20596;-61
2023/10/04 09:20:32;;;;;;;12.73;2.05;;;21.00;58.00;;;;;;5046578;28;20706;-61
2023/10/04 09:23:20;;;;;;;13.63;1.95;;;21.00;58.10;;;;;;5052598;28;20522;-59
2023/10/04 09:25:47;;;;;;;13.63;2.35;;;21.00;57.80;;;;;;5051093;28;20213;-59
2023/10/04 09:28:18;;;;;;;14.25;1.90;;;21.00;57.80;;;;;;5062883;28;20226;-60
2023/10/04 09:30:48;;;;;;;9.32;2.10;;;21.00;57.80;;;;;;5063272;28;20714;-61
2023/10/04 09:33:28;;;;;;;8.75;1.80;;;21.00;57.60;;;;;;5032904;28;20205;-61
2023/10/04 09:36:00;;;;;;;12.45;2.00;;;20.90;57.40;;;;;;5066778;28;20190;-60
2023/10/04 09:38:35;;;;;;;9.38;1.80;;;20.90;57.50;;;;;;5050754;28;20738;-61
2023/10/04 09:41:06;;;;;;;10.15;2.08;;;20.90;57.60;;;;;;5066843;28;20202;-61
2023/10/04 09:43:41;;;;;;;10.32;1.85;;;20.90;57.70;;;;;;5069324;28;20222;-63
2023/10/04 09:46:11;;;;;;;8.30;1.88;;;20.90;57.70;;;;;;5028377;28;20209;-63
2023/10/04 09:48:43;;;;;;;7.43;2.20;;;20.90;57.70;;;;;;5055845;28;20318;-60
2023/10/04 09:51:11;;;;;;;7.13;1.70;;;21.00;57.70;;;;;;5055398;28;20217;-62
2023/10/04 09:53:40;;;;;;;7.88;1.58;;;21.00;57.50;;;;;;5057715;28;20226;-60
2023/10/04 09:56:11;;;;;;;5.63;1.80;;;21.00;57.70;;;;;;5065361;28;20647;-63
2023/10/04 10:04:48;;;;;;;8.48;1.60;;;21.00;57.60;;;;;;4931977;28;20223;-63
2023/10/04 10:07:31;;;;;;;12.13;2.25;;;21.00;57.30;;;;;;5024297;28;20289;-63
2023/10/04 10:10:05;;;;;;;6.30;1.88;;;21.00;57.30;;;;;;5068770;28;20234;-63
2023/10/04 10:12:33;;;;;;;6.38;1.90;;;21.00;57.20;;;;;;5066380;28;20269;-61
2023/10/04 10:15:04;;;;;;;7.10;1.95;;;21.00;57.20;;;;;;5065537;28;20233;-61
2023/10/04 10:17:35;;;;;;;7.50;1.77;;;21.00;57.20;;;;;;5068177;28;20274;-61
2023/10/04 10:20:04;;;;;;;5.60;1.63;;;21.00;57.10;;;;;;5068242;28;20210;-61
2023/10/04 10:22:32;;;;;;;8.38;1.40;;;21.00;57.00;;;;;;5064303;28;20578;-61
2023/10/04 10:25:14;;;;;;;4.22;1.63;;;21.00;57.00;;;;;;5068328;28;20226;-61
2023/10/04 10:27:43;;;;;;;4.35;1.88;;;21.00;56.90;;;;;;5068798;28;20558;-61
2023/10/04 10:37:27;;;;;;;4.03;1.40;;;21.00;56.90;;;;;;5064752;28;20179;-61
2023/10/04 10:40:03;;;;;;;4.45;1.25;;;21.00;56.90;;;;;;5042598;28;20275;-61
2023/10/04 10:43:09;;;;;;;4.82;1.58;;;21.00;56.80;;;;;;5027773;28;20210;-61
2023/10/04 10:45:38;;;;;;;3.67;1.58;;;21.00;56.80;;;;;;5042312;28;20218;-61
2023/10/04 10:48:10;;;;;;;6.28;1.90;;;21.00;56.70;;;;;;5044190;28;20283;-61
2023/10/04 10:50:53;;;;;;;5.97;1.95;;;21.00;56.80;;;;;;5039202;28;20294;-61
2023/10/04 10:53:20;;;;;;;4.38;1.60;;;21.00;56.90;;;;;;5041345;28;20195;-61
2023/10/04 10:55:51;;;;;;;7.68;1.65;;;21.00;56.80;;;;;;5040624;28;20219;-61
2023/10/04 10:58:20;;;;;;;7.13;1.27;;;21.00;56.90;;;;;;5041595;28;20673;-61
2023/10/04 11:00:49;;;;;;;6.13;1.65;;;21.00;56.90;;;;;;5045584;28;20669;-61
2023/10/04 11:03:20;;;;;;;5.32;1.70;;;21.00;56.90;;;;;;5047745;28;20310;-61
2023/10/04 11:05:48;;;;;;;4.15;1.58;;;20.90;56.80;;;;;;5070225;28;20191;-61
2023/10/04 11:08:16;;;;;;;3.67;1.77;;;20.90;56.80;;;;;;5069664;28;20190;-61
2023/10/04 11:10:44;;;;;;;3.35;1.67;;;21.00;56.90;;;;;;5069284;28;20233;-61
2023/10/04 11:13:23;;;;;;;3.15;1.50;;;21.00;57.00;;;;;;5067065;28;20733;-61
2023/10/04 11:15:54;;;;;;;9.25;1.90;;;21.00;57.00;;;;;;5068076;28;20199;-60
2023/10/04 11:18:47;;;;;;;4.82;1.58;;;20.90;56.90;;;;;;5070839;28;20274;-61
2023/10/04 11:21:15;;;;;;;3.88;1.55;;;21.00;56.90;;;;;;5058093;28;20206;-61
2023/10/04 11:23:42;;;;;;;4.50;1.50;;;21.00;57.00;;;;;;5069215;28;20235;-61
2023/10/04 11:28:53;;;;;;;6.93;1.63;;;20.90;56.90;;;;;;5063886;28;20313;-61
2023/10/04 11:31:23;;;;;;;3.97;1.60;;;21.00;56.90;;;;;;5069061;28;20218;-61
2023/10/04 11:36:35;;;;;;;4.22;1.52;;;21.00;56.90;;;;;;5059016;28;20353;-61
2023/10/04 11:39:12;;;;;;;3.50;1.58;;;21.00;56.80;;;;;;5068738;28;20218;-61
2023/10/04 11:41:40;;;;;;;3.78;1.70;;;21.00;56.80;;;;;;5069170;28;20349;-61
2023/10/04 11:44:19;;;;;;;4.72;1.60;;;21.00;56.70;;;;;;5068451;28;20233;-61
2023/10/04 11:46:55;;;;;;;2.70;1.48;;;21.00;56.70;;;;;;5067600;28;20248;-62
2023/10/04 11:49:38;;;;;;;3.20;1.45;;;21.00;56.80;;;;;;5070014;28;20218;-61
2023/10/04 11:52:09;;;;;;;2.80;1.50;;;21.00;56.70;;;;;;5065925;28;20198;-61
2023/10/04 11:54:47;;;;;;;3.58;1.40;;;21.00;56.50;;;;;;5066457;28;20240;-61
2023/10/04 12:00:48;;;;;;;3.85;1.42;;;21.00;56.80;;;;;;4902487;29;20393;-63
2023/10/04 12:03:29;;;;;;;3.85;1.50;;;21.00;56.80;;;;;;4907583;29;20638;-60
2023/10/04 12:09:33;;;;;;;4.50;1.40;;;21.10;56.90;;;;;;4911659;29;20212;-61
2023/10/04 12:18:04;;;;;;;3.38;1.48;;;21.10;56.70;;;;;;4888282;29;20199;-61
2023/10/04 12:20:36;;;;;;;3.22;1.45;;;21.10;56.60;;;;;;4908496;29;20228;-59
2023/10/04 12:23:03;;;;;;;5.53;1.45;;;21.10;56.80;;;;;;4911594;29;20213;-62
2023/10/04 12:25:51;;;;;;;3.90;1.45;;;21.00;56.60;;;;;;4914549;29;20237;-61
2023/10/04 12:28:20;;;;;;;6.57;1.45;;;21.10;56.70;;;;;;4917288;29;20201;-63
2023/10/04 12:31:15;;;;;;;5.45;1.77;;;21.00;56.70;;;;;;4933981;28;20230;-63
2023/10/04 12:33:48;;;;;;;2.55;1.30;;;21.10;56.90;;;;;;5009244;28;20618;-62
2023/10/04 12:36:28;;;;;;;4.90;1.17;;;21.10;56.70;;;;;;5002522;28;20221;-61
2023/10/04 12:38:56;;;;;;;5.45;1.52;;;21.10;56.90;;;;;;5056327;28;20268;-62
2023/10/04 12:41:25;;;;;;;3.28;1.63;;;21.10;57.00;;;;;;5067678;28;20202;-63
2023/10/04 12:43:54;;;;;;;3.90;1.50;;;21.10;56.90;;;;;;5063783;28;20297;-63
2023/10/04 12:46:21;;;;;;;4.07;1.38;;;21.10;57.00;;;;;;5058405;28;20233;-61
2023/10/04 12:51:31;;;;;;;3.60;1.60;;;21.10;56.90;;;;;;5063083;28;20233;-62
2023/10/04 12:53:59;;;;;;;3.55;1.52;;;21.10;56.80;;;;;;5062245;28;20199;-63
2023/10/04 12:56:26;;;;;;;2.53;1.17;;;21.10;56.80;;;;;;5060903;28;20554;-63
2023/10/04 12:59:22;;;;;;;3.55;1.38;;;21.20;57.00;;;;;;5066834;28;20237;-62
2023/10/04 13:01:52;;;;;;;3.08;1.30;;;21.10;56.60;;;;;;5061319;28;20207;-62
2023/10/04 13:04:19;;;;;;;5.13;1.45;;;21.10;56.70;;;;;;5058003;28;20214;-63
2023/10/04 13:06:55;;;;;;;3.05;1.35;;;21.10;56.80;;;;;;5063193;28;20207;-63
2023/10/04 13:09:33;;;;;;;12.60;1.40;;;21.10;56.90;;;;;;5063062;28;20204;-60
2023/10/04 13:16:08;;;;;;;;;;;;;;;;;;;;;
2023/10/04 13:22:13;;;;;;;6.80;1.67;;;21.10;57.10;;;;;;4973816;28;20214;-63
2023/10/04 13:24:40;;;;;;;8.82;1.50;;;21.10;57.20;;;;;;4976002;28;20237;-63
2023/10/04 13:44:22;;;;;;;6.38;1.50;;;21.10;57.00;;;;;;4926087;29;20255;-58
2023/10/04 13:46:49;;;;;;;5.55;1.60;;;21.20;57.10;;;;;;4930478;29;20234;-61
2023/10/04 13:49:16;;;;;;;5.50;1.55;;;21.20;57.10;;;;;;4928526;29;20204;-62
2023/10/04 13:51:43;;;;;;;9.35;1.92;;;21.20;57.70;;;;;;4954565;28;20315;-62
2023/10/04 13:54:29;;;;;;;3.42;1.63;;;21.20;57.20;;;;;;4998516;28;20675;-60
2023/10/04 14:00:22;;;;;;;6.38;1.65;;;21.20;57.10;;;;;;4953222;28;20354;-60
2023/10/04 14:05:31;;;;;;;3.13;1.48;;;21.20;57.00;;;;;;4999452;28;20220;-59
2023/10/04 14:07:59;;;;;;;7.30;1.88;;;21.20;57.00;;;;;;4998987;28;20292;-59
2023/10/04 14:13:32;;;;;;;2.70;1.45;;;21.20;56.70;;;;;;4924718;29;20243;-58
2023/10/04 14:16:03;;;;;;;4.85;1.48;;;21.20;56.60;;;;;;4993414;28;20221;-58
2023/10/04 14:19:12;;;;;;;3.03;1.67;;;21.20;56.60;;;;;;5011176;28;20300;-59
2023/10/04 14:22:16;;;;;;;5.50;1.50;;;21.20;56.60;;;;;;5035592;28;20222;-58
2023/10/04 14:24:44;;;;;;;3.42;1.38;;;21.20;56.60;;;;;;5058839;28;20669;-62
2023/10/04 14:27:14;;;;;;;4.80;1.55;;;21.20;56.60;;;;;;5059253;28;20228;-62
2023/10/04 14:29:41;;;;;;;2.53;1.73;;;21.20;56.60;;;;;;5056281;28;20191;-62
2023/10/04 14:32:22;;;;;;;4.15;1.80;;;21.20;56.80;;;;;;5059266;28;20314;-59
2023/10/04 14:34:50;;;;;;;3.25;1.50;;;21.20;56.90;;;;;;5064920;28;20621;-59
2023/10/04 14:43:28;;;;;;;4.55;1.50;;;21.20;56.90;;;;;;5003210;28;20602;-58
2023/10/04 14:59:56;;;;;;;3.40;1.67;;;21.20;57.00;;;;;;4960537;28;20306;-60
2023/10/04 15:02:23;;;;;;;5.28;1.63;;;21.20;56.90;;;;;;4959726;28;20233;-59
2023/10/04 15:04:53;;;;;;;5.22;2.00;;;21.10;56.90;;;;;;5041306;28;20203;-60
2023/10/04 15:07:20;;;;;;;6.85;1.80;;;21.20;57.10;;;;;;5067454;28;20257;-60
2023/10/04 15:09:48;;;;;;;3.95;1.48;;;21.20;57.20;;;;;;5067310;28;20198;-59
2023/10/04 15:12:16;;;;;;;5.32;1.50;;;21.20;57.30;;;;;;5052707;28;20234;-59
2023/10/04 15:14:44;;;;;;;4.15;1.42;;;21.20;57.50;;;;;;5062175;28;20760;-58
2023/10/04 15:17:12;;;;;;;4.57;1.35;;;21.20;57.70;;;;;;5064637;28;20226;-62
2023/10/04 15:19:40;;;;;;;9.43;1.70;;;21.20;57.60;;;;;;5065836;28;20199;-60
2023/10/04 15:22:17;;;;;;;6.20;1.80;;;21.20;57.60;;;;;;5056753;28;20223;-60
2023/10/04 15:24:44;;;;;;;5.80;1.77;;;21.20;57.70;;;;;;5065677;28;20222;-59
2023/10/04 15:27:13;;;;;;;3.97;1.73;;;21.20;57.70;;;;;;5064951;28;20273;-60
2023/10/04 15:29:41;;;;;;;7.40;1.67;;;21.30;57.70;;;;;;5064731;28;20202;-61
2023/10/04 15:32:11;;;;;;;8.85;1.80;;;21.20;57.70;;;;;;5063133;28;20234;-61
2023/10/04 15:34:39;;;;;;;8.45;2.38;;;21.30;57.70;;;;;;5064649;28;20199;-60
2023/10/04 15:37:16;;;;;;;4.68;1.52;;;21.30;57.70;;;;;;5064628;28;20227;-60
2023/10/04 15:39:46;;;;;;;6.55;1.88;;;21.30;57.80;;;;;;5062421;28;20730;-60
2023/10/04 15:42:24;;;;;;;;;;;;;;;;;;;;;
2023/10/04 15:44:58;;;;;;;7.07;1.48;;;21.30;57.70;;;;;;5006873;28;20221;-59
2023/10/04 15:53:58;;;;;;;4.07;1.52;;;21.30;57.70;;;;;;5032295;28;20316;-58
2023/10/04 15:56:26;;;;;;;6.60;1.67;;;21.20;57.70;;;;;;5057941;28;20199;-61
2023/10/04 15:58:54;;;;;;;7.97;1.58;;;21.30;57.90;;;;;;5064792;28;20399;-61
2023/10/04 16:01:22;;;;;;;3.08;1.70;;;21.30;57.90;;;;;;5066313;28;20202;-61
2023/10/04 16:03:50;;;;;;;8.05;1.90;;;21.30;57.90;;;;;;5054489;28;20642;-61
2023/10/04 16:06:19;;;;;;;5.50;1.75;;;21.30;57.80;;;;;;5053838;28;20191;-60
2023/10/04 16:09:04;;;;;;;;;;;;;;;;;;;;;
2023/10/04 16:11:31;;;;;;;3.92;1.65;;;21.30;57.70;;;;;;5069055;28;20791;-60
2023/10/04 16:13:59;;;;;;;6.07;1.52;;;21.30;57.50;;;;;;5070483;28;20280;-61
2023/10/04 16:16:27;;;;;;;4.20;1.90;;;21.30;57.40;;;;;;5072253;28;20191;-60
2023/10/04 16:18:56;;;;;;;4.13;1.48;;;21.30;57.20;;;;;;5071478;28;20222;-60
2023/10/04 16:21:25;;;;;;;4.93;1.88;;;21.30;57.30;;;;;;5071134;28;20207;-58
2023/10/04 16:24:32;;;;;;;2.85;1.70;;;21.20;57.10;;;;;;5069998;28;20231;-60
2023/10/04 16:30:22;;;;;;;4.65;1.70;;;21.10;57.30;;;;;;5050807;28;20206;-60
2023/10/04 16:32:50;;;;;;;7.13;1.45;;;21.10;57.40;;;;;;5051533;28;20236;-60
2023/10/04 16:35:19;;;;;;;5.00;1.83;;;21.10;57.40;;;;;;5050939;28;20188;-60
2023/10/04 16:37:50;;;;;;;4.15;1.70;;;21.10;57.50;;;;;;5052228;28;20226;-60
2023/10/04 16:40:19;;;;;;;5.68;1.63;;;21.00;57.50;;;;;;5050871;28;20263;-63
2023/10/04 16:42:48;;;;;;;3.67;1.48;;;21.00;57.50;;;;;;5051506;28;20595;-62
2023/10/04 16:45:17;;;;;;;3.80;1.17;;;21.00;57.50;;;;;;5050505;28;20276;-62
2023/10/04 16:47:48;;;;;;;3.80;1.52;;;21.00;57.50;;;;;;5051533;28;20227;-63
2023/10/04 16:56:22;;;;;;;3.08;1.30;;;20.90;57.60;;;;;;4984205;28;20239;-62
2023/10/04 16:58:50;;;;;;;2.90;1.38;;;20.90;57.50;;;;;;5039178;28;20220;-62
2023/10/04 17:01:17;;;;;;;3.67;1.65;;;20.80;57.50;;;;;;5050708;28;20187;-62
2023/10/04 17:03:48;;;;;;;2.33;1.20;;;20.80;57.50;;;;;;5049597;28;20298;-62
2023/10/04 17:06:16;;;;;;;4.10;1.40;;;20.80;57.50;;;;;;5051550;28;20192;-62
2023/10/04 17:08:44;;;;;;;4.25;1.50;;;20.80;57.50;;;;;;5051466;28;20227;-62
2023/10/04 17:11:11;;;;;;;3.50;1.42;;;20.80;57.50;;;;;;5051643;28;20212;-62
2023/10/04 17:13:40;;;;;;;5.53;1.73;;;20.80;57.60;;;;;;5051636;28;20211;-63
2023/10/04 17:16:09;;;;;;;5.20;1.60;;;20.70;57.50;;;;;;5051236;28;20203;-62
2023/10/04 17:24:39;;;;;;;5.30;1.60;;;20.70;57.70;;;;;;5010504;28;20255;-63
2023/10/04 17:27:07;;;;;;;4.15;1.48;;;20.70;57.70;;;;;;5029498;28;20291;-62
2023/10/04 17:29:38;;;;;;;5.68;1.40;;;20.70;57.70;;;;;;5028991;28;20203;-62
2023/10/04 17:32:05;;;;;;;3.17;1.50;;;20.60;57.60;;;;;;5028911;28;20256;-62
2023/10/04 17:34:33;;;;;;;4.45;1.35;;;20.70;57.70;;;;;;5028178;28;20270;-62
2023/10/04 17:37:02;;;;;;;3.72;1.58;;;20.60;57.60;;;;;;5028298;28;20196;-62
2023/10/04 17:39:30;;;;;;;3.13;1.48;;;20.60;57.60;;;;;;5029336;28;20196;-64